createdAt,value
2022-08-17T00:00:42.674Z,66.92
2022-08-17T00:03:13.481Z,66.78
2022-08-17T00:06:02.344Z,67.04
2022-08-17T00:08:35.627Z,66.43
2022-08-17T00:11:06.559Z,66.91
2022-08-17T00:13:42.757Z,66.87
2022-08-17T00:16:16.391Z,67.68
2022-08-17T00:18:53.910Z,67.55
2022-08-17T00:22:29.646Z,67.64
2022-08-17T00:24:28.194Z,68.17
2022-08-17T00:26:57.112Z,68.22
2022-08-17T00:29:23.571Z,68.37
2022-08-17T00:31:50.054Z,69.00
2022-08-17T00:34:23.344Z,68.97
2022-08-17T00:36:49.769Z,69.33
2022-08-17T00:39:16.225Z,69.71
2022-08-17T00:41:43.229Z,69.45
2022-08-17T00:44:12.038Z,69.61
2022-08-17T00:46:42.057Z,69.64
2022-08-17T00:49:19.353Z,69.67
2022-08-17T00:52:10.777Z,69.76
2022-08-17T00:54:48.361Z,70.04
2022-08-17T00:57:46.763Z,71.01
2022-08-17T01:00:26.504Z,70.97
2022-08-17T01:03:09.009Z,71.66
2022-08-17T01:05:38.863Z,71.69
2022-08-17T01:08:11.919Z,72.31
2022-08-17T01:10:59.865Z,72.05
2022-08-17T01:13:36.786Z,72.47
2022-08-17T01:16:26.352Z,72.39
2022-08-17T01:18:59.076Z,72.82
2022-08-17T01:21:54.698Z,73.15
2022-08-17T01:24:21.109Z,73.70
2022-08-17T01:26:48.198Z,73.37
2022-08-17T01:29:23.374Z,73.89
2022-08-17T01:31:57.436Z,74.03
2022-08-17T01:34:42.523Z,74.30
2022-08-17T01:37:10.768Z,75.10
2022-08-17T01:39:47.681Z,74.48
2022-08-17T01:42:49.610Z,74.74
2022-08-17T01:45:23.115Z,75.12
2022-08-17T01:47:52.427Z,75.56
2022-08-17T01:50:26.197Z,76.19
2022-08-17T01:52:58.338Z,76.38
2022-08-17T01:55:32.187Z,76.35
2022-08-17T01:58:02.419Z,76.13
2022-08-17T02:00:59.694Z,76.14
2022-08-17T02:03:29.406Z,76.47
2022-08-17T02:05:56.365Z,76.98
2022-08-17T02:08:39.131Z,76.25
2022-08-17T02:11:16.910Z,77.15
2022-08-17T02:13:57.911Z,77.26
2022-08-17T02:16:37.075Z,76.50
2022-08-17T02:19:07.110Z,78.43
2022-08-17T02:21:34.189Z,79.13
2022-08-17T02:24:00.816Z,79.81
2022-08-17T02:26:29.618Z,79.80
2022-08-17T02:28:58.593Z,80.10
2022-08-17T02:31:24.994Z,79.17
2022-08-17T02:34:00.373Z,78.25
2022-08-17T02:36:33.002Z,79.55
2022-08-17T02:39:07.447Z,80.08
2022-08-17T02:41:34.003Z,79.54
2022-08-17T02:44:01.117Z,80.91
2022-08-17T02:46:33.875Z,78.65
2022-08-17T02:49:00.580Z,81.59
2022-08-17T02:51:27.264Z,81.86
2022-08-17T02:54:02.064Z,80.95
2022-08-17T02:56:40.550Z,81.93
2022-08-17T02:59:16.428Z,81.09
2022-08-17T03:01:45.509Z,81.70
2022-08-17T03:04:27.462Z,80.10
2022-08-17T03:07:00.707Z,81.71
2022-08-17T03:09:33.435Z,81.94
2022-08-17T03:12:09.091Z,83.13
2022-08-17T03:14:44.755Z,84.06
2022-08-17T03:17:16.923Z,81.36
2022-08-17T03:19:53.476Z,82.80
2022-08-17T03:22:37.357Z,83.54
2022-08-17T03:25:10.780Z,82.72
2022-08-17T03:27:38.398Z,80.80
2022-08-17T03:30:10.590Z,82.60
2022-08-17T03:32:45.118Z,81.67
2022-08-17T03:35:20.458Z,80.33
2022-08-17T03:37:47.093Z,79.94
2022-08-17T03:40:34.441Z,80.51
2022-08-17T03:43:14.879Z,80.26
2022-08-17T03:46:01.421Z,80.19
2022-08-17T03:48:46.860Z,80.42
2022-08-17T03:51:44.479Z,79.74
2022-08-17T03:54:32.242Z,78.79
2022-08-17T03:57:07.952Z,78.60
2022-08-17T03:59:35.801Z,78.98
2022-08-17T04:02:16.530Z,78.54
2022-08-17T04:04:42.974Z,78.11
2022-08-17T04:07:09.568Z,77.73
2022-08-17T04:09:39.287Z,77.75
2022-08-17T04:12:05.865Z,77.54
2022-08-17T04:14:51.855Z,77.36
2022-08-17T04:17:31.518Z,76.67
2022-08-17T04:19:57.970Z,76.90
2022-08-17T04:22:32.945Z,76.65
2022-08-17T04:25:20.522Z,76.67
2022-08-17T04:27:48.688Z,76.49
2022-08-17T04:30:15.830Z,76.15
2022-08-17T04:33:13.147Z,76.22
2022-08-17T04:35:51.710Z,75.23
2022-08-17T04:38:21.635Z,74.28
2022-08-17T04:41:13.566Z,74.33
2022-08-17T04:43:41.748Z,73.40
2022-08-17T04:46:15.187Z,72.22
2022-08-17T04:48:44.715Z,71.98
2022-08-17T04:51:15.382Z,72.14
2022-08-17T04:53:54.325Z,72.13
2022-08-17T04:56:26.267Z,71.79
2022-08-17T04:59:03.552Z,71.58
2022-08-17T05:01:33.303Z,72.69
2022-08-17T05:04:33.099Z,72.68
2022-08-17T05:07:00.180Z,71.06
2022-08-17T05:09:33.612Z,70.42
2022-08-17T05:12:02.175Z,70.96
2022-08-17T05:14:35.563Z,70.23
2022-08-17T05:17:04.155Z,70.47
2022-08-17T05:19:38.422Z,71.19
2022-08-17T05:22:05.799Z,70.79
2022-08-17T05:24:38.633Z,69.96
2022-08-17T05:27:18.899Z,69.80
2022-08-17T05:29:47.972Z,69.83
2022-08-17T05:32:38.550Z,69.38
2022-08-17T05:35:06.634Z,70.54
2022-08-17T05:37:35.398Z,70.17
2022-08-17T05:40:01.943Z,68.92
2022-08-17T05:42:30.559Z,69.39
2022-08-17T05:45:00.667Z,68.63
2022-08-17T05:47:27.577Z,67.69
2022-08-17T05:49:57.390Z,69.13
2022-08-17T05:53:05.599Z,67.83
2022-08-17T05:55:50.614Z,67.75
2022-08-17T05:58:35.745Z,66.65
2022-08-17T06:01:07.999Z,67.91
2022-08-17T06:03:58.586Z,67.85
2022-08-17T06:06:31.371Z,66.39
2022-08-17T06:09:13.582Z,66.15
2022-08-17T06:12:19.775Z,67.75
2022-08-17T06:15:13.590Z,66.73
2022-08-17T06:17:42.190Z,66.76
2022-08-17T06:20:15.458Z,65.75
2022-08-17T06:22:49.622Z,65.05
2022-08-17T06:25:39.056Z,65.91
2022-08-17T06:28:13.929Z,66.11
2022-08-17T06:30:59.790Z,66.58
2022-08-17T06:33:36.302Z,67.38
2022-08-17T06:36:24.614Z,66.95
2022-08-17T06:39:14.293Z,67.02
2022-08-17T06:42:09.442Z,66.48
2022-08-17T06:45:07.263Z,67.07
2022-08-17T06:47:53.641Z,66.41
2022-08-17T06:50:22.428Z,68.34
2022-08-17T06:53:03.449Z,67.28
2022-08-17T06:55:54.135Z,66.37
2022-08-17T06:58:23.459Z,66.49
2022-08-17T07:01:00.915Z,65.75
2022-08-17T07:03:47.672Z,67.15
2022-08-17T07:06:20.830Z,66.74
2022-08-17T07:08:55.718Z,66.90
2022-08-17T07:11:34.112Z,66.75
2022-08-17T07:14:34.668Z,67.94
2022-08-17T07:17:06.867Z,67.75
2022-08-17T07:19:41.104Z,68.02
2022-08-17T07:22:27.828Z,68.01
2022-08-17T07:24:57.242Z,67.00
2022-08-17T07:27:38.854Z,68.56
2022-08-17T07:30:19.305Z,68.20
2022-08-17T07:32:53.264Z,69.57
2022-08-17T07:35:41.300Z,70.12
2022-08-17T07:38:25.834Z,71.03
2022-08-17T07:40:57.600Z,69.96
2022-08-17T07:43:49.883Z,70.19
2022-08-17T07:46:37.088Z,70.33
2022-08-17T07:49:03.516Z,70.07
2022-08-17T07:51:36.487Z,68.92
2022-08-17T07:54:27.082Z,67.82
2022-08-17T07:57:29.492Z,68.55
2022-08-17T08:00:03.156Z,66.24
2022-08-17T08:02:41.645Z,67.36
2022-08-17T08:05:50.266Z,67.66
2022-08-17T08:08:29.085Z,67.49
2022-08-17T08:11:11.890Z,68.47
2022-08-17T08:13:42.728Z,67.32
2022-08-17T08:16:23.700Z,64.61
2022-08-17T08:18:56.781Z,65.43
2022-08-17T08:21:47.527Z,64.64
2022-08-17T08:24:55.313Z,66.11
2022-08-17T08:27:53.739Z,66.11
2022-08-17T08:30:24.089Z,66.74
2022-08-17T08:33:09.067Z,66.40
2022-08-17T08:36:04.043Z,68.96
2022-08-17T08:38:46.212Z,68.84
2022-08-17T08:41:19.185Z,67.46
2022-08-17T08:44:09.080Z,65.46
2022-08-17T08:47:09.856Z,66.21
2022-08-17T08:50:04.123Z,72.70
2022-08-17T08:53:08.359Z,77.18
2022-08-17T08:55:55.784Z,80.39
2022-08-17T08:58:53.408Z,80.56
2022-08-17T09:01:42.566Z,83.49
2022-08-17T09:05:10.659Z,75.08
2022-08-17T09:07:43.219Z,71.33
2022-08-17T09:10:39.039Z,71.17
2022-08-17T09:13:22.075Z,73.29
2022-08-17T09:15:57.618Z,70.46
2022-08-17T09:19:01.184Z,69.53
2022-08-17T09:21:48.082Z,69.11
2022-08-17T09:25:03.452Z,69.74
2022-08-17T09:27:35.287Z,67.95
2022-08-17T09:30:09.107Z,67.83
2022-08-17T09:32:55.210Z,65.05
2022-08-17T09:35:37.432Z,65.55
2022-08-17T09:38:46.890Z,72.41
2022-08-17T09:41:25.378Z,73.75
2022-08-17T09:44:23.446Z,72.45
2022-08-17T09:46:50.172Z,71.93
2022-08-17T09:49:31.471Z,70.98
2022-08-17T09:52:09.760Z,72.39
2022-08-17T09:54:41.655Z,73.20
2022-08-17T09:57:31.621Z,70.71
2022-08-17T10:00:16.216Z,73.25
2022-08-17T10:03:00.650Z,70.20
2022-08-17T10:05:46.796Z,71.44
2022-08-17T10:08:47.793Z,70.02
2022-08-17T10:11:57.544Z,68.28
2022-08-17T10:15:07.769Z,71.50
2022-08-17T10:17:50.566Z,68.82
2022-08-17T10:20:29.715Z,70.79
2022-08-17T10:23:29.154Z,72.36
2022-08-17T10:26:40.531Z,73.19
2022-08-17T10:29:49.114Z,72.18
2022-08-17T10:32:41.809Z,71.97
2022-08-17T10:35:26.979Z,71.34
2022-08-17T10:38:37.795Z,73.26
2022-08-17T10:41:18.914Z,73.14
2022-08-17T10:44:38.307Z,72.88
2022-08-17T10:47:14.638Z,72.83
2022-08-17T10:49:54.211Z,74.85
2022-08-17T10:52:20.899Z,73.54
2022-08-17T10:55:05.835Z,73.84
2022-08-17T10:57:35.051Z,75.96
2022-08-17T11:00:15.595Z,74.97
2022-08-17T11:02:51.514Z,70.28
2022-08-17T11:05:32.994Z,72.30
2022-08-17T11:08:05.475Z,73.49
2022-08-17T11:10:59.302Z,67.09
2022-08-17T11:13:53.465Z,66.65
2022-08-17T11:16:45.822Z,66.80
2022-08-17T11:19:31.708Z,65.52
2022-08-17T11:22:14.833Z,65.62
2022-08-17T11:24:47.682Z,64.32
2022-08-17T11:27:14.079Z,61.65
2022-08-17T11:29:56.771Z,61.91
2022-08-17T11:32:32.538Z,62.80
2022-08-17T11:35:13.175Z,59.19
2022-08-17T11:37:56.614Z,59.27
2022-08-17T11:40:31.269Z,60.86
2022-08-17T11:42:57.685Z,59.81
2022-08-17T11:45:46.905Z,59.63
2022-08-17T11:48:52.886Z,59.97
2022-08-17T11:51:35.341Z,61.42
2022-08-17T11:54:32.740Z,58.15
2022-08-17T11:56:54.395Z,59.20
2022-08-17T11:59:33.122Z,59.46
2022-08-17T12:02:01.670Z,59.79
2022-08-17T12:04:31.762Z,59.84
2022-08-17T12:07:08.627Z,59.00
2022-08-17T12:09:41.174Z,57.64
2022-08-17T12:12:15.807Z,58.68
2022-08-17T12:15:11.858Z,56.79
2022-08-17T12:17:42.614Z,57.16
2022-08-17T12:20:22.041Z,58.88
2022-08-17T12:23:18.063Z,57.24
2022-08-17T12:25:51.323Z,57.65
2022-08-17T12:28:30.685Z,56.59
2022-08-17T12:31:21.906Z,55.76
2022-08-17T12:33:50.123Z,56.43
2022-08-17T12:36:24.773Z,54.06
2022-08-17T12:39:13.690Z,57.76
2022-08-17T12:41:44.063Z,55.99
2022-08-17T12:44:33.424Z,56.09
2022-08-17T12:47:04.471Z,55.84
2022-08-17T12:49:37.034Z,54.44
2022-08-17T12:52:12.873Z,54.99
2022-08-17T12:54:46.795Z,55.84
2022-08-17T12:57:18.344Z,54.59
2022-08-17T12:59:55.808Z,55.48
2022-08-17T13:02:28.839Z,57.24
2022-08-17T13:05:02.377Z,57.16
2022-08-17T13:07:42.324Z,55.70
2022-08-17T13:10:22.523Z,55.73
2022-08-17T13:12:50.957Z,52.87
2022-08-17T13:15:22.558Z,53.58
2022-08-17T13:18:33.947Z,52.83
2022-08-17T13:21:00.999Z,55.82
2022-08-17T13:23:35.995Z,53.66
2022-08-17T13:26:09.140Z,52.72
2022-08-17T13:28:38.863Z,52.36
2022-08-17T13:31:27.963Z,55.22
2022-08-17T13:34:31.681Z,53.37
2022-08-17T13:37:25.638Z,53.04
2022-08-17T13:39:55.483Z,51.34
2022-08-17T13:42:55.414Z,50.43
2022-08-17T13:45:34.799Z,48.49
2022-08-17T13:48:25.420Z,49.00
2022-08-17T13:50:52.217Z,52.07
2022-08-17T13:53:29.420Z,49.34
2022-08-17T13:56:00.692Z,49.96
2022-08-17T13:58:40.956Z,50.30
2022-08-17T14:01:28.948Z,50.56
2022-08-17T14:03:56.089Z,49.70
2022-08-17T14:06:52.477Z,48.66
2022-08-17T14:09:11.352Z,47.31
2022-08-17T14:11:38.226Z,49.91
2022-08-17T14:14:04.709Z,48.76
2022-08-17T14:16:37.981Z,48.04
2022-08-17T14:19:07.346Z,46.34
2022-08-17T14:21:51.751Z,46.41
2022-08-17T14:24:24.781Z,46.36
2022-08-17T14:26:52.959Z,49.38
2022-08-17T14:29:21.218Z,47.24
2022-08-17T14:31:54.141Z,46.63
2022-08-17T14:34:24.812Z,46.72
2022-08-17T14:36:52.236Z,47.84
2022-08-17T14:39:19.161Z,46.69
2022-08-17T14:41:45.862Z,48.54
2022-08-17T14:44:13.162Z,49.48
2022-08-17T14:46:43.958Z,45.62
2022-08-17T14:49:12.259Z,48.55
2022-08-17T14:51:43.484Z,48.17
2022-08-17T14:54:10.995Z,47.06
2022-08-17T14:56:38.598Z,47.72
2022-08-17T14:59:05.482Z,45.33
2022-08-17T15:01:32.832Z,45.39
2022-08-17T15:04:00.325Z,45.53
2022-08-17T15:06:33.451Z,44.81
2022-08-17T15:09:01.991Z,45.17
2022-08-17T15:11:28.442Z,46.46
2022-08-17T15:13:55.139Z,45.21
2022-08-17T15:16:33.060Z,43.98
2022-08-17T15:18:59.851Z,44.15
2022-08-17T15:21:26.380Z,43.77
2022-08-17T15:23:55.434Z,44.83
2022-08-17T15:26:26.144Z,44.28
2022-08-17T15:28:54.518Z,44.71
2022-08-17T15:31:31.728Z,44.50
2022-08-17T15:33:59.744Z,42.38
2022-08-17T15:36:31.005Z,43.11
2022-08-17T15:38:58.728Z,42.68
2022-08-17T15:41:27.965Z,43.81
2022-08-17T15:43:55.184Z,42.39
2022-08-17T15:46:23.754Z,44.06
2022-08-17T15:48:52.932Z,42.57
2022-08-17T15:51:31.083Z,42.70
2022-08-17T15:54:19.392Z,43.83
2022-08-17T15:56:59.068Z,45.66
2022-08-17T15:59:25.539Z,48.06
2022-08-17T16:03:14.446Z,47.64
2022-08-17T16:04:44.138Z,47.05
2022-08-17T16:07:11.483Z,47.50
2022-08-17T16:09:38.434Z,48.89
2022-08-17T16:12:13.286Z,47.63
2022-08-17T16:14:42.007Z,49.54
2022-08-17T16:17:38.667Z,49.68
2022-08-17T16:19:57.359Z,49.60
2022-08-17T16:22:39.514Z,49.66
2022-08-17T16:25:13.883Z,45.82
2022-08-17T16:27:41.479Z,46.60
2022-08-17T16:30:12.513Z,47.28
2022-08-17T16:32:43.194Z,48.96
2022-08-17T16:35:17.209Z,49.89
2022-08-17T16:37:47.961Z,51.25
2022-08-17T16:40:16.767Z,52.21
2022-08-17T16:42:45.785Z,52.14
2022-08-17T16:45:28.152Z,53.13
2022-08-17T16:48:01.669Z,53.16
2022-08-17T16:50:28.114Z,52.19
2022-08-17T16:53:03.639Z,52.54
2022-08-17T16:55:30.202Z,53.87
2022-08-17T16:57:56.942Z,55.29
2022-08-17T17:00:23.341Z,54.71
2022-08-17T17:02:50.030Z,53.46
2022-08-17T17:05:57.693Z,53.52
2022-08-17T17:08:30.337Z,54.29
2022-08-17T17:10:59.424Z,53.25
2022-08-17T17:13:35.383Z,54.20
2022-08-17T17:16:24.977Z,53.53
2022-08-17T17:19:03.298Z,54.42
2022-08-17T17:21:55.942Z,53.60
2022-08-17T17:24:37.000Z,54.09
2022-08-17T17:27:14.594Z,54.41
2022-08-17T17:29:59.512Z,55.11
2022-08-17T17:32:39.093Z,54.57
2022-08-17T17:35:25.170Z,54.31
2022-08-17T17:37:57.397Z,54.19
2022-08-17T17:40:29.173Z,54.66
2022-08-17T17:43:14.251Z,55.26
2022-08-17T17:45:56.321Z,54.72
2022-08-17T17:48:23.747Z,54.75
2022-08-17T17:52:01.972Z,54.82
2022-08-17T17:54:52.734Z,54.54
2022-08-17T17:57:37.452Z,54.98
2022-08-17T18:00:20.202Z,55.68
2022-08-17T18:03:11.164Z,55.99
2022-08-17T18:06:02.196Z,54.81
2022-08-17T18:08:34.779Z,56.18
2022-08-17T18:11:11.221Z,56.26
2022-08-17T18:14:24.682Z,56.40
2022-08-17T18:17:07.202Z,56.82
2022-08-17T18:19:33.618Z,57.21
2022-08-17T18:22:20.231Z,57.10
2022-08-17T18:24:56.437Z,57.31
2022-08-17T18:27:43.197Z,57.60
2022-08-17T18:30:15.159Z,57.53
2022-08-17T18:32:50.219Z,57.02
2022-08-17T18:35:19.701Z,55.01
2022-08-17T18:37:58.219Z,56.35
2022-08-17T18:40:32.490Z,57.44
2022-08-17T18:43:12.776Z,57.10
2022-08-17T18:45:49.606Z,57.54
2022-08-17T18:48:50.183Z,58.14
2022-08-17T18:51:40.620Z,58.32
2022-08-17T18:54:29.244Z,58.53
2022-08-17T18:56:59.604Z,58.81
2022-08-17T18:59:40.236Z,58.76
2022-08-17T19:02:43.809Z,58.71
2022-08-17T19:05:41.254Z,59.16
2022-08-17T19:08:19.975Z,59.40
2022-08-17T19:10:56.232Z,59.76
2022-08-17T19:13:25.369Z,60.12
2022-08-17T19:16:13.795Z,60.06
2022-08-17T19:19:09.656Z,60.81
2022-08-17T19:21:37.908Z,60.79
2022-08-17T19:24:13.547Z,60.83
2022-08-17T19:26:55.904Z,59.52
2022-08-17T19:29:37.272Z,59.16
2022-08-17T19:32:07.260Z,59.23
2022-08-17T19:34:36.492Z,60.10
2022-08-17T19:37:06.928Z,60.13
2022-08-17T19:39:49.358Z,60.99
2022-08-17T19:42:47.508Z,61.21
2022-08-17T19:45:29.265Z,61.75
2022-08-17T19:48:14.145Z,62.22
2022-08-17T19:51:02.631Z,61.96
2022-08-17T19:54:05.816Z,61.53
2022-08-17T19:56:55.773Z,61.97
2022-08-17T19:59:28.770Z,62.85
2022-08-17T20:02:21.149Z,62.73
2022-08-17T20:04:59.937Z,62.63
2022-08-17T20:07:38.813Z,63.57
2022-08-17T20:10:17.597Z,62.95
2022-08-17T20:12:49.646Z,63.64
2022-08-17T20:15:28.481Z,64.56
2022-08-17T20:17:58.732Z,64.08
2022-08-17T20:20:36.002Z,63.14
2022-08-17T20:23:06.874Z,63.30
2022-08-17T20:26:19.093Z,63.50
2022-08-17T20:29:13.758Z,63.86
2022-08-17T20:31:42.105Z,63.82
2022-08-17T20:34:38.089Z,64.41
2022-08-17T20:37:30.647Z,64.77
2022-08-17T20:39:57.075Z,65.23
2022-08-17T20:42:23.554Z,66.39
2022-08-17T20:44:57.708Z,65.06
2022-08-17T20:48:07.373Z,65.13
2022-08-17T20:50:43.815Z,65.10
2022-08-17T20:53:15.186Z,65.23
2022-08-17T20:55:52.061Z,65.10
2022-08-17T20:58:29.936Z,65.38
2022-08-17T21:00:57.712Z,66.48
2022-08-17T21:03:24.239Z,66.30
2022-08-17T21:05:59.718Z,65.92
2022-08-17T21:08:45.660Z,64.20
2022-08-17T21:12:02.846Z,64.42
2022-08-17T21:14:38.329Z,63.72
2022-08-17T21:17:35.587Z,64.81
2022-08-17T21:20:50.340Z,64.70
2022-08-17T21:23:26.292Z,65.40
2022-08-17T21:25:55.405Z,65.57
2022-08-17T21:29:01.459Z,65.76
2022-08-17T21:34:19.315Z,66.90
2022-08-17T21:36:48.269Z,66.95
2022-08-17T21:39:19.341Z,67.33
2022-08-17T21:41:55.602Z,67.08
2022-08-17T21:44:35.153Z,66.73
2022-08-17T21:47:26.456Z,66.59
2022-08-17T21:49:55.023Z,66.09
2022-08-17T21:52:24.304Z,66.17
2022-08-17T21:55:04.369Z,65.94
2022-08-17T21:57:38.234Z,65.77
2022-08-17T22:00:16.299Z,65.54
2022-08-17T22:02:42.947Z,65.54
2022-08-17T22:05:27.377Z,65.84
2022-08-17T22:08:22.256Z,65.95
2022-08-17T22:11:06.403Z,66.40
2022-08-17T22:13:37.447Z,67.00
2022-08-17T22:16:15.468Z,67.07
2022-08-17T22:18:54.477Z,65.89
2022-08-17T22:21:22.607Z,66.39
2022-08-17T22:24:14.065Z,66.73
2022-08-17T22:27:02.134Z,66.05
2022-08-17T22:29:47.877Z,66.60
2022-08-17T22:32:51.403Z,66.34
2022-08-17T22:35:43.146Z,66.03
2022-08-17T22:38:21.240Z,66.24
2022-08-17T22:40:52.573Z,66.53
2022-08-17T22:43:26.423Z,67.20
2022-08-17T22:45:58.918Z,67.17
2022-08-17T22:48:28.306Z,67.19
2022-08-17T22:51:13.501Z,67.24
2022-08-17T22:54:32.536Z,67.20
2022-08-17T22:57:22.271Z,67.84
2022-08-17T23:00:01.421Z,68.17
2022-08-17T23:02:31.717Z,68.17
2022-08-17T23:05:20.426Z,67.99
2022-08-17T23:07:47.729Z,68.33
2022-08-17T23:10:17.089Z,68.49
2022-08-17T23:12:43.567Z,69.27
2022-08-17T23:15:16.259Z,69.36
2022-08-17T23:17:42.954Z,69.31
2022-08-17T23:20:15.001Z,69.74
2022-08-17T23:22:54.479Z,70.56
2022-08-17T23:25:30.340Z,69.87
2022-08-17T23:28:01.777Z,69.56
2022-08-17T23:30:31.249Z,69.43
2022-08-17T23:33:04.099Z,69.57
2022-08-17T23:35:38.893Z,69.78
2022-08-17T23:38:17.457Z,69.53
2022-08-17T23:40:43.936Z,69.60
2022-08-17T23:43:23.551Z,69.86
2022-08-17T23:45:55.462Z,69.99
2022-08-17T23:48:35.095Z,70.74
2022-08-17T23:51:06.001Z,71.10
2022-08-17T23:53:34.431Z,70.26
2022-08-17T23:56:09.174Z,69.03
2022-08-17T23:58:48.471Z,70.00
